Time;durP1;ratioP1;P1;durP2;ratioP2;P2;SDS_P1;SDS_P2;PMS_P1;PMS_P2;Temp;Humidity;BMP_temperature;BMP_pressure;BME280_temperature;BME280_humidity;BME280_pressure;Samples;Min_cycle;Max_cycle;Signal;HPM_P1;HPM_P2
2024/01/07 00:01:48;;;;;;;6.53;3.10;;;;;;;11.77;100.00;99292.53;5026855;28;20026;-73
2024/01/07 00:04:18;;;;;;;10.00;3.40;;;;;;;11.62;100.00;99284.56;5030144;28;20045;-77
2024/01/07 00:06:44;;;;;;;10.57;3.40;;;;;;;11.64;100.00;99296.66;5030150;28;20017;-73
2024/01/07 00:09:12;;;;;;;12.30;3.08;;;;;;;11.60;100.00;99294.00;5027982;28;20515;-72
2024/01/07 00:11:37;;;;;;;6.38;3.38;;;;;;;11.54;100.00;99299.97;5029900;28;20029;-72
2024/01/07 00:14:03;;;;;;;9.98;3.17;;;;;;;11.71;100.00;99289.84;5029916;28;20597;-75
2024/01/07 00:16:28;;;;;;;6.97;3.38;;;;;;;11.79;100.00;99308.94;5029789;28;20026;-71
2024/01/07 00:18:54;;;;;;;8.27;4.25;;;;;;;11.44;100.00;99249.00;5029794;28;20029;-72
2024/01/07 00:21:20;;;;;;;6.72;2.72;;;;;;;11.72;100.00;99275.22;5011189;28;20492;-73
2024/01/07 00:23:45;;;;;;;8.23;2.90;;;;;;;11.38;100.00;99211.03;5029987;28;20407;-72
2024/01/07 00:26:11;;;;;;;4.88;3.17;;;;;;;11.64;100.00;99294.09;5029751;28;20026;-71
2024/01/07 00:28:36;;;;;;;9.32;4.07;;;;;;;11.37;100.00;99253.22;5029734;28;20099;-71
2024/01/07 00:31:02;;;;;;;9.63;4.13;;;;;;;11.57;100.00;99292.25;5029922;28;20091;-70
2024/01/07 00:33:27;;;;;;;6.97;3.13;;;;;;;11.19;100.00;99238.34;5029895;28;20025;-70
2024/01/07 00:35:53;;;;;;;7.68;4.05;;;;;;;11.57;100.00;99301.75;5029669;28;20428;-73
2024/01/07 00:38:18;;;;;;;5.18;2.78;;;;;;;11.51;100.00;99317.16;5030035;28;20033;-74
2024/01/07 00:40:44;;;;;;;7.93;3.47;;;;;;;11.49;100.00;99310.25;5029428;28;20029;-69
2024/01/07 00:43:10;;;;;;;8.57;3.70;;;;;;;11.35;100.00;99297.97;5029781;28;20029;-73
2024/01/07 00:45:35;;;;;;;7.70;3.38;;;;;;;11.35;100.00;99265.22;5026983;28;20475;-71
2024/01/07 00:48:01;;;;;;;10.32;4.00;;;;;;;11.46;100.00;99306.75;5029096;28;20037;-73
2024/01/07 00:50:26;;;;;;;7.40;3.80;;;;;;;11.44;100.00;99304.16;5029210;28;20017;-75
2024/01/07 00:52:52;;;;;;;6.22;3.40;;;;;;;11.30;100.00;99282.38;5011882;28;20032;-71
2024/01/07 00:55:17;;;;;;;12.27;4.88;;;;;;;11.46;100.00;99305.06;5029502;28;20014;-70
2024/01/07 00:57:43;;;;;;;10.30;4.97;;;;;;;11.33;100.00;99283.31;5029400;28;20033;-69
2024/01/07 01:00:09;;;;;;;7.38;3.95;;;;;;;11.43;100.00;99291.22;5033191;28;20028;-71
2024/01/07 01:02:35;;;;;;;9.77;4.65;;;;;;;11.27;100.00;99254.78;5031941;28;20038;-72
2024/01/07 01:05:01;;;;;;;14.18;4.93;;;;;;;11.32;100.00;99285.88;5033267;28;20170;-69
2024/01/07 01:07:27;;;;;;;8.43;4.47;;;;;;;11.28;100.00;99253.94;5033321;28;20468;-69
2024/01/07 01:09:52;;;;;;;13.38;5.22;;;;;;;11.19;100.00;99221.94;5032439;28;20071;-72
2024/01/07 01:12:18;;;;;;;15.00;5.32;;;;;;;11.29;100.00;99236.72;5032933;28;20025;-71
2024/01/07 01:14:43;;;;;;;11.05;5.50;;;;;;;11.16;100.00;99228.81;5033028;28;20029;-72
2024/01/07 01:17:09;;;;;;;18.48;7.03;;;;;;;11.29;100.00;99263.44;5031696;28;20026;-72
2024/01/07 01:19:34;;;;;;;17.38;5.93;;;;;;;11.38;100.00;99262.72;5014461;28;20113;-75
2024/01/07 01:22:00;;;;;;;13.45;5.78;;;;;;;11.28;100.00;99229.84;5030809;28;20026;-72
2024/01/07 01:24:25;;;;;;;13.05;5.63;;;;;;;11.13;100.00;99202.09;5033333;28;20036;-74
2024/01/07 01:26:51;;;;;;;7.35;4.35;;;;;;;11.27;100.00;99221.22;5033148;28;20033;-72
2024/01/07 01:29:16;;;;;;;9.90;4.97;;;;;;;11.38;100.00;99236.03;5033354;28;20527;-75
2024/01/07 01:31:42;;;;;;;10.38;4.65;;;;;;;11.36;100.00;99220.47;5032637;28;20025;-71
2024/01/07 01:34:08;;;;;;;8.63;4.78;;;;;;;11.36;100.00;99217.03;5032865;28;20029;-73
2024/01/07 01:36:34;;;;;;;8.45;4.35;;;;;;;11.43;100.00;99217.13;5031623;28;20443;-72
2024/01/07 01:38:59;;;;;;;9.50;3.85;;;;;;;11.41;100.00;99223.97;5032896;28;20491;-73
2024/01/07 01:41:25;;;;;;;13.18;4.25;;;;;;;10.95;100.00;99138.09;5032553;28;20076;-73
2024/01/07 01:43:50;;;;;;;10.88;4.80;;;;;;;11.35;100.00;99207.53;5032493;28;20029;-72
2024/01/07 01:46:16;;;;;;;10.52;5.75;;;;;;;11.32;100.00;99196.28;5032566;28;20017;-74
2024/01/07 01:48:42;;;;;;;9.65;4.68;;;;;;;11.23;100.00;99180.69;5032723;28;20116;-71
2024/01/07 01:51:08;;;;;;;9.18;4.40;;;;;;;11.30;100.00;99189.38;5032573;28;20032;-72
2024/01/07 01:53:34;;;;;;;8.40;4.68;;;;;;;11.25;100.00;99188.44;5032297;28;20480;-75
2024/01/07 01:56:02;;;;;;;7.22;4.75;;;;;;;11.20;100.00;99190.09;5032419;28;20056;-73
2024/01/07 01:58:29;;;;;;;10.30;4.53;;;;;;;11.16;100.00;99178.88;5031187;28;20029;-73
2024/01/07 02:00:56;;;;;;;9.20;4.38;;;;;;;11.13;100.00;99179.69;5032119;28;20033;-73
2024/01/07 02:03:22;;;;;;;9.35;4.82;;;;;;;10.99;100.00;99158.84;5032498;28;20091;-70
2024/01/07 02:05:49;;;;;;;8.85;4.80;;;;;;;11.10;100.00;99152.94;5032085;28;20025;-73
2024/01/07 02:08:18;;;;;;;11.23;4.45;;;;;;;11.16;100.00;99135.84;5031814;28;20119;-73
2024/01/07 02:10:44;;;;;;;10.75;4.22;;;;;;;11.19;100.00;99128.97;5031503;28;20488;-70
2024/01/07 02:13:10;;;;;;;8.40;3.90;;;;;;;11.17;100.00;99123.78;5032198;28;20061;-71
2024/01/07 02:15:36;;;;;;;8.43;3.40;;;;;;;11.16;100.00;99102.25;5031186;28;20033;-71
2024/01/07 02:18:02;;;;;;;9.23;3.47;;;;;;;11.19;100.00;99092.78;5031797;28;20112;-71
2024/01/07 02:20:27;;;;;;;5.65;3.92;;;;;;;11.28;100.00;99082.59;5031882;28;20061;-75
2024/01/07 02:22:53;;;;;;;7.50;3.90;;;;;;;11.24;100.00;99073.03;5032058;28;20033;-73
2024/01/07 02:25:19;;;;;;;4.55;2.70;;;;;;;11.17;100.00;99070.38;5032141;28;20065;-74
2024/01/07 02:27:44;;;;;;;7.53;4.10;;;;;;;11.07;100.00;99063.38;5031712;28;20099;-72
2024/01/07 02:30:10;;;;;;;9.43;3.97;;;;;;;11.19;100.00;99066.97;5031968;28;20515;-70
2024/01/07 02:32:37;;;;;;;12.98;5.22;;;;;;;11.02;100.00;99036.63;5032122;28;20045;-74
2024/01/07 02:35:03;;;;;;;10.35;4.35;;;;;;;10.97;100.00;99036.56;5031820;28;20499;-72
2024/01/07 02:37:29;;;;;;;12.95;5.38;;;;;;;11.24;100.00;99075.63;5013193;28;20068;-71
2024/01/07 02:39:55;;;;;;;12.90;5.65;;;;;;;11.23;100.00;99043.78;5031868;28;20559;-74
2024/01/07 02:42:20;;;;;;;11.77;5.47;;;;;;;10.98;100.00;98989.25;5029373;28;20046;-73
2024/01/07 02:44:46;;;;;;;8.25;5.13;;;;;;;11.25;100.00;99031.75;5031661;28;20025;-76
2024/01/07 02:47:11;;;;;;;11.95;5.68;;;;;;;11.22;100.00;99005.88;5031732;28;20025;-76
2024/01/07 02:49:37;;;;;;;8.13;4.80;;;;;;;11.36;100.00;99012.91;5031618;28;20037;-75
2024/01/07 02:52:03;;;;;;;8.32;3.88;;;;;;;11.24;100.00;99003.28;4980201;28;20072;-72
2024/01/07 02:54:28;;;;;;;13.85;3.90;;;;;;;11.23;100.00;98988.66;5031625;28;20033;-71
2024/01/07 02:56:54;;;;;;;10.82;4.65;;;;;;;11.30;100.00;99008.53;5031231;28;20112;-71
2024/01/07 02:59:19;;;;;;;5.18;3.63;;;;;;;11.24;100.00;98982.63;5031254;28;20029;-73
2024/01/07 03:01:45;;;;;;;4.35;2.83;;;;;;;11.03;100.00;98932.50;5018867;28;20546;-70
2024/01/07 03:04:13;;;;;;;5.78;3.45;;;;;;;11.29;100.00;98956.00;5011508;28;20121;-74
2024/01/07 03:06:39;;;;;;;32.30;3.78;;;;;;;11.20;100.00;98944.72;5011627;28;20026;-70
2024/01/07 03:09:05;;;;;;;5.32;3.08;;;;;;;11.16;100.00;98944.69;5011398;28;20056;-74
2024/01/07 03:11:30;;;;;;;5.65;2.90;;;;;;;11.09;100.00;98926.50;5011589;28;20033;-73
2024/01/07 03:13:56;;;;;;;28.33;2.90;;;;;;;10.95;100.00;98885.94;5011231;28;20026;-72
2024/01/07 03:16:23;;;;;;;5.22;2.63;;;;;;;11.11;100.00;98905.00;5010845;28;20038;-73
2024/01/07 03:18:49;;;;;;;4.55;2.47;;;;;;;11.15;100.00;98893.00;5008937;28;20558;-74
2024/01/07 03:21:19;;;;;;;10.88;2.42;;;;;;;11.17;100.00;98892.16;5011244;28;20034;-73
2024/01/07 03:23:45;;;;;;;4.60;2.22;;;;;;;10.89;100.00;98846.28;5010370;28;20037;-73
2024/01/07 03:26:11;;;;;;;3.47;2.05;;;;;;;11.14;100.00;98886.97;5010767;28;20404;-74
2024/01/07 03:28:36;;;;;;;4.63;1.85;;;;;;;11.13;100.00;98905.91;5010645;28;20033;-73
2024/01/07 03:31:10;;;;;;;4.05;2.13;;;;;;;11.09;100.00;98909.31;5011503;28;20029;-74
2024/01/07 03:33:37;;;;;;;10.30;1.75;;;;;;;11.03;100.00;98891.19;5010884;28;20037;-72
2024/01/07 03:36:10;;;;;;;3.88;1.67;;;;;;;11.19;100.00;98912.84;5011167;28;20021;-73
2024/01/07 03:38:36;;;;;;;4.32;2.08;;;;;;;11.17;100.00;98919.72;5010920;28;20525;-72
2024/01/07 03:41:01;;;;;;;4.05;2.05;;;;;;;10.68;100.00;98837.50;5010706;28;20045;-74
2024/01/07 03:43:27;;;;;;;2.85;1.60;;;;;;;10.94;100.00;98901.41;5010966;28;20480;-73
2024/01/07 03:45:53;;;;;;;2.92;1.73;;;;;;;11.13;100.00;98911.06;5010923;28;20022;-75
2024/01/07 03:48:19;;;;;;;3.00;1.70;;;;;;;11.15;100.00;98917.13;5011022;28;20473;-72
2024/01/07 03:50:45;;;;;;;3.95;2.17;;;;;;;11.16;100.00;98923.16;5010875;28;20106;-71
2024/01/07 03:53:10;;;;;;;4.30;1.63;;;;;;;11.24;100.00;98933.53;5010660;28;20104;-70
2024/01/07 03:55:36;;;;;;;5.68;1.95;;;;;;;11.38;100.00;98942.31;5007932;28;20100;-72
2024/01/07 03:58:02;;;;;;;5.22;2.05;;;;;;;11.32;100.00;98965.50;4992005;28;20048;-72
2024/01/07 04:00:28;;;;;;;3.83;2.00;;;;;;;11.32;100.00;98950.00;4991743;28;20057;-73
2024/01/07 04:02:54;;;;;;;3.60;1.75;;;;;;;11.16;100.00;98929.19;5007891;28;20070;-75
2024/01/07 04:05:19;;;;;;;5.68;2.42;;;;;;;11.14;100.00;98928.31;5008156;28;20121;-74
2024/01/07 04:07:45;;;;;;;6.78;2.80;;;;;;;11.06;100.00;98914.44;5008118;28;20034;-78
2024/01/07 04:10:10;;;;;;;3.95;2.03;;;;;;;11.01;100.00;98916.13;5007767;28;20436;-71
2024/01/07 04:12:36;;;;;;;4.43;1.83;;;;;;;10.72;100.00;98856.47;5008218;28;20030;-72
2024/01/07 04:15:02;;;;;;;5.03;1.70;;;;;;;10.63;100.00;98877.84;5007850;28;20528;-75
2024/01/07 04:17:27;;;;;;;1.95;1.17;;;;;;;10.93;100.00;98939.28;5007991;28;20045;-74
2024/01/07 04:19:53;;;;;;;2.40;0.90;;;;;;;10.84;100.00;98927.13;5008323;28;20029;-75
2024/01/07 04:22:18;;;;;;;1.98;1.17;;;;;;;10.87;100.00;98946.97;5007594;28;20044;-76
2024/01/07 04:24:44;;;;;;;0.60;0.50;;;;;;;10.80;100.00;98950.31;5008027;28;20077;-74
2024/01/07 04:27:09;;;;;;;0.60;0.47;;;;;;;10.64;100.00;98911.44;5003614;28;20076;-73
2024/01/07 04:29:35;;;;;;;0.20;0.20;;;;;;;10.61;100.00;98926.00;5010466;28;20116;-73
2024/01/07 04:32:01;;;;;;;0.17;0.17;;;;;;;10.40;100.00;98919.72;5010138;28;20030;-78
2024/01/07 04:34:27;;;;;;;0.43;0.25;;;;;;;10.51;100.00;98956.00;5012815;28;20052;-72
2024/01/07 04:36:52;;;;;;;1.10;0.40;;;;;;;10.27;100.00;98934.16;5014044;28;20026;-71
2024/01/07 04:39:18;;;;;;;2.35;0.22;;;;;;;10.33;100.00;98954.00;5013899;28;20053;-71
2024/01/07 04:41:43;;;;;;;0.73;0.35;;;;;;;9.86;100.00;98886.31;5014062;28;20488;-73
2024/01/07 04:44:09;;;;;;;0.90;0.50;;;;;;;9.89;100.00;98916.44;5013585;28;20038;-75
2024/01/07 04:46:35;;;;;;;1.50;0.60;;;;;;;10.07;100.00;98951.06;5013933;28;20022;-74
2024/01/07 04:49:01;;;;;;;3.70;1.20;;;;;;;9.67;100.00;98892.03;5013683;28;20026;-73
2024/01/07 04:51:27;;;;;;;3.40;1.30;;;;;;;10.00;100.00;98942.38;5013795;28;20033;-72
2024/01/07 04:53:52;;;;;;;4.70;1.42;;;;;;;9.29;100.00;98817.63;5025931;28;20060;-72
2024/01/07 04:56:18;;;;;;;2.67;1.52;;;;;;;10.01;100.00;98941.53;5044424;28;20041;-72
2024/01/07 04:58:43;;;;;;;2.75;1.50;;;;;;;10.05;100.00;98938.16;5033556;28;20026;-72
2024/01/07 05:01:09;;;;;;;3.33;1.38;;;;;;;10.08;100.00;98925.31;5033450;28;20032;-71
2024/01/07 05:03:35;;;;;;;3.38;1.40;;;;;;;9.96;100.00;98889.91;5033206;28;20028;-72
2024/01/07 05:06:01;;;;;;;2.42;1.30;;;;;;;10.12;100.00;98914.19;5033397;28;20033;-72
2024/01/07 05:08:28;;;;;;;3.45;1.20;;;;;;;10.19;100.00;98908.28;5033113;28;20483;-70
2024/01/07 05:10:53;;;;;;;7.05;1.40;;;;;;;10.18;100.00;98903.06;5032204;28;20065;-72
2024/01/07 05:13:18;;;;;;;2.47;1.20;;;;;;;10.12;100.00;98895.25;5033391;28;20107;-72
2024/01/07 05:15:46;;;;;;;2.80;0.95;;;;;;;10.07;100.00;98897.78;5033245;28;20506;-72
2024/01/07 05:18:11;;;;;;;1.52;0.80;;;;;;;9.85;100.00;98889.75;5032987;28;20683;-73
2024/01/07 05:20:37;;;;;;;2.28;0.93;;;;;;;10.13;100.00;98951.13;5032962;28;20045;-73
2024/01/07 05:23:02;;;;;;;2.22;1.00;;;;;;;10.11;100.00;98937.38;5032693;28;20026;-76
2024/01/07 05:25:28;;;;;;;1.67;0.80;;;;;;;10.12;100.00;98947.72;5033253;28;20033;-73
2024/01/07 05:27:54;;;;;;;2.47;1.02;;;;;;;9.98;100.00;98926.88;5032824;28;20443;-72
2024/01/07 05:30:19;;;;;;;1.98;1.13;;;;;;;10.00;100.00;98934.63;5033091;28;20060;-71
2024/01/07 05:32:44;;;;;;;1.52;0.80;;;;;;;9.91;100.00;98922.47;5014203;28;20455;-71
2024/01/07 05:35:10;;;;;;;5.18;1.00;;;;;;;9.96;100.00;98944.03;5032799;28;20104;-71
2024/01/07 05:37:35;;;;;;;1.83;0.70;;;;;;;9.90;100.00;98930.19;5032755;28;20061;-72
2024/01/07 05:40:01;;;;;;;2.17;0.68;;;;;;;9.86;100.00;98919.81;5032847;28;20136;-72
2024/01/07 05:42:26;;;;;;;1.60;0.70;;;;;;;9.72;100.00;98890.44;5032715;28;20476;-73
2024/01/07 05:44:52;;;;;;;3.17;0.73;;;;;;;9.35;100.00;98838.34;5030686;28;20091;-73
2024/01/07 05:47:18;;;;;;;2.38;0.80;;;;;;;9.70;100.00;98923.03;5032278;28;20385;-72
2024/01/07 05:49:43;;;;;;;3.38;0.77;;;;;;;9.26;100.00;98856.19;5032394;28;20494;-73
2024/01/07 05:52:09;;;;;;;3.28;0.95;;;;;;;8.87;100.00;98789.53;5032349;28;20112;-71
2024/01/07 05:54:34;;;;;;;1.63;0.90;;;;;;;9.64;100.00;98928.94;5032357;28;20661;-72
2024/01/07 05:57:00;;;;;;;6.53;1.65;;;;;;;9.54;100.00;98902.19;5032572;28;20080;-72
2024/01/07 05:59:25;;;;;;;3.75;1.02;;;;;;;9.48;100.00;98938.16;5032534;28;20468;-72
2024/01/07 06:01:51;;;;;;;2.08;0.80;;;;;;;9.30;100.00;98936.13;5032350;28;20034;-72
2024/01/07 06:04:16;;;;;;;3.47;1.70;;;;;;;9.17;100.00;98893.84;5032295;28;20087;-72
2024/01/07 06:06:42;;;;;;;1.50;0.90;;;;;;;9.15;100.00;98897.25;5032474;28;20033;-71
2024/01/07 06:09:08;;;;;;;3.17;0.88;;;;;;;8.99;100.00;98878.94;5032254;28;20116;-77
2024/01/07 06:11:34;;;;;;;0.82;0.68;;;;;;;9.11;100.00;98898.00;5032178;28;20033;-75
2024/01/07 06:13:59;;;;;;;3.03;1.17;;;;;;;9.11;100.00;98903.16;5031926;28;20052;-72
2024/01/07 06:16:25;;;;;;;2.83;0.80;;;;;;;8.79;100.00;98852.00;5032210;28;20120;-75
2024/01/07 06:18:51;;;;;;;3.45;1.30;;;;;;;9.19;100.00;98922.19;5032022;28;20057;-72
2024/01/07 06:21:17;;;;;;;3.03;0.60;;;;;;;9.28;100.00;98924.91;5030035;28;20462;-72
2024/01/07 06:23:42;;;;;;;3.22;0.75;;;;;;;9.30;100.00;98920.66;5031931;28;20025;-72
2024/01/07 06:26:08;;;;;;;5.05;0.90;;;;;;;9.39;100.00;98931.13;5032037;28;20021;-74
2024/01/07 06:28:33;;;;;;;4.38;1.98;;;;;;;9.33;100.00;98914.69;5031822;28;20059;-74
2024/01/07 06:30:59;;;;;;;6.95;2.55;;;;;;;9.41;100.00;98927.69;5031769;28;20025;-72
2024/01/07 06:33:24;;;;;;;3.88;1.85;;;;;;;9.52;100.00;98942.50;5031213;28;20071;-72
2024/01/07 06:35:50;;;;;;;27.33;14.07;;;;;;;9.48;100.00;98935.59;5031354;28;20021;-72
2024/01/07 06:38:15;;;;;;;9.05;4.43;;;;;;;9.65;100.00;98947.84;5031739;28;20037;-77
2024/01/07 06:40:41;;;;;;;7.10;1.83;;;;;;;9.50;100.00;98913.25;5031667;28;20510;-77
2024/01/07 06:43:06;;;;;;;8.55;3.90;;;;;;;9.27;100.00;98865.66;5031552;28;20037;-77
2024/01/07 06:45:32;;;;;;;10.38;5.85;;;;;;;9.52;100.00;98910.72;5031408;28;20029;-72
2024/01/07 06:47:58;;;;;;;8.68;3.90;;;;;;;9.60;100.00;98929.75;5031403;28;20444;-72
2024/01/07 06:50:24;;;;;;;11.40;4.57;;;;;;;9.56;100.00;98915.09;5029458;28;20037;-72
2024/01/07 06:52:49;;;;;;;7.40;2.58;;;;;;;9.46;100.00;98915.75;5031216;28;20032;-72
2024/01/07 06:55:15;;;;;;;7.07;1.70;;;;;;;9.44;100.00;98917.47;5036561;28;20082;-72
2024/01/07 06:57:40;;;;;;;4.18;1.50;;;;;;;9.47;100.00;98920.97;5036438;28;20112;-73
2024/01/07 07:00:07;;;;;;;15.82;5.85;;;;;;;9.50;100.00;98938.16;5012464;28;20042;-75
2024/01/07 07:02:33;;;;;;;7.88;2.30;;;;;;;9.50;100.00;98935.59;5031357;28;20037;-72
2024/01/07 07:04:58;;;;;;;12.90;5.38;;;;;;;9.13;100.00;98874.03;5031126;28;20555;-72
2024/01/07 07:07:24;;;;;;;9.63;6.05;;;;;;;9.54;100.00;98927.94;5029580;28;20076;-77
2024/01/07 07:09:50;;;;;;;16.98;12.07;;;;;;;9.47;100.00;98900.34;5029927;28;20492;-75
2024/01/07 07:12:15;;;;;;;8.45;4.47;;;;;;;9.36;100.00;98873.56;5030888;28;20056;-72
2024/01/07 07:14:41;;;;;;;17.45;9.32;;;;;;;9.50;100.00;98872.03;5029368;28;20065;-71
2024/01/07 07:17:06;;;;;;;28.67;17.15;;;;;;;9.68;100.00;98880.91;5030474;28;20055;-71
2024/01/07 07:19:32;;;;;;;14.25;5.50;;;;;;;9.33;100.00;98830.59;5031129;28;20527;-71
2024/01/07 07:21:59;;;;;;;16.75;12.25;;;;;;;9.67;100.00;98876.59;5013341;28;20048;-71
2024/01/07 07:24:24;;;;;;;15.13;7.13;;;;;;;9.81;100.00;98898.28;5031143;28;20443;-71
2024/01/07 07:26:50;;;;;;;12.52;3.65;;;;;;;9.94;100.00;98906.19;5030830;28;20064;-72
2024/01/07 07:29:15;;;;;;;14.23;5.20;;;;;;;10.02;100.00;98896.88;5030872;28;20029;-72
2024/01/07 07:31:41;;;;;;;11.50;4.20;;;;;;;10.02;100.00;98889.97;5029326;28;20116;-76
2024/01/07 07:34:09;;;;;;;11.10;6.07;;;;;;;10.12;100.00;98885.81;5029257;28;20079;-71
2024/01/07 07:36:34;;;;;;;15.48;9.50;;;;;;;10.32;100.00;98886.06;5030492;28;20504;-73
2024/01/07 07:39:00;;;;;;;14.40;6.68;;;;;;;10.46;100.00;98890.56;5030875;28;20058;-72
2024/01/07 07:41:26;;;;;;;17.20;5.38;;;;;;;10.45;100.00;98869.03;5030554;28;20033;-71
2024/01/07 07:43:52;;;;;;;19.42;8.20;;;;;;;10.36;100.00;98849.16;5030595;28;20086;-72
2024/01/07 07:46:17;;;;;;;21.77;10.50;;;;;;;10.68;100.00;98878.78;5030858;28;20116;-72
2024/01/07 07:48:44;;;;;;;23.05;15.70;;;;;;;10.82;100.00;98884.94;5030361;28;20488;-72
2024/01/07 07:51:11;;;;;;;18.05;4.45;;;;;;;10.94;100.00;98889.38;5011846;28;20168;-72
2024/01/07 07:53:41;;;;;;;14.15;2.40;;;;;;;11.00;100.00;98891.13;5011846;28;20103;-71
2024/01/07 07:56:08;;;;;;;10.27;3.45;;;;;;;10.98;100.00;98865.31;5028151;28;20614;-74
2024/01/07 07:58:33;;;;;;;15.02;2.85;;;;;;;11.11;100.00;98891.25;5030597;28;20025;-70
2024/01/07 08:00:59;;;;;;;13.68;2.83;;;;;;;11.11;100.00;98888.66;5030431;28;20021;-72
2024/01/07 08:03:24;;;;;;;8.32;1.65;;;;;;;11.14;100.00;98897.31;5030136;28;20504;-71
2024/01/07 08:05:50;;;;;;;11.65;2.45;;;;;;;10.96;100.00;98827.41;5030431;28;20033;-71
2024/01/07 08:08:17;;;;;;;18.70;9.40;;;;;;;11.29;100.00;98890.53;5029484;28;20154;-77
2024/01/07 08:10:43;;;;;;;9.63;2.85;;;;;;;11.24;100.00;98885.34;5036862;28;20443;-69
2024/01/07 08:13:08;;;;;;;17.75;5.45;;;;;;;11.20;100.00;98888.72;5018017;28;20183;-75
2024/01/07 08:15:34;;;;;;;55.42;23.55;;;;;;;11.44;100.00;98894.97;5035689;28;20124;-71
2024/01/07 08:18:03;;;;;;;22.40;5.82;;;;;;;11.53;100.00;98891.63;5036644;28;20029;-75
2024/01/07 08:20:29;;;;;;;15.90;4.85;;;;;;;11.65;100.00;98881.34;5036602;28;20123;-71
2024/01/07 08:22:54;;;;;;;45.17;17.45;;;;;;;11.75;100.00;98882.25;5036901;28;20056;-71
2024/01/07 08:25:20;;;;;;;26.90;11.43;;;;;;;11.64;100.00;98856.38;5036737;28;20041;-72
2024/01/07 08:27:45;;;;;;;25.52;13.13;;;;;;;11.83;100.00;98875.44;5036784;28;20032;-70
2024/01/07 08:30:13;;;;;;;32.08;12.00;;;;;;;11.90;100.00;98877.19;5036599;28;20017;-71
2024/01/07 08:32:39;;;;;;;20.08;6.60;;;;;;;11.90;100.00;98887.53;5036490;28;20166;-71
2024/01/07 08:35:05;;;;;;;26.33;11.43;;;;;;;11.80;100.00;98878.88;5036727;28;20025;-75
2024/01/07 08:37:30;;;;;;;17.60;4.72;;;;;;;11.74;100.00;98871.06;5036731;28;20034;-71
2024/01/07 08:39:56;;;;;;;16.08;3.88;;;;;;;11.70;100.00;98852.94;5036737;28;20045;-72
2024/01/07 08:42:22;;;;;;;9.50;3.28;;;;;;;11.89;100.00;98870.28;5036684;28;20029;-71
2024/01/07 08:44:47;;;;;;;16.45;2.95;;;;;;;11.90;100.00;98878.91;5036665;28;20483;-71
2024/01/07 08:47:13;;;;;;;11.32;2.75;;;;;;;11.99;100.00;98879.00;5036342;28;20142;-72
2024/01/07 08:49:38;;;;;;;19.13;6.55;;;;;;;11.72;100.00;98827.97;5036613;28;20124;-71
2024/01/07 08:52:05;;;;;;;18.42;3.47;;;;;;;12.20;100.00;98872.19;5036501;28;20033;-72
2024/01/07 08:54:30;;;;;;;19.75;3.83;;;;;;;12.06;100.00;98859.19;5036627;28;20026;-73
2024/01/07 08:56:56;;;;;;;21.42;4.45;;;;;;;11.83;100.00;98803.03;5036469;28;20059;-72
2024/01/07 08:59:22;;;;;;;19.50;3.13;;;;;;;12.24;100.00;98867.06;5017549;28;20107;-70
2024/01/07 09:01:48;;;;;;;14.77;3.30;;;;;;;11.91;100.00;98805.66;5036130;28;20029;-71
2024/01/07 09:04:13;;;;;;;13.57;2.75;;;;;;;12.17;100.00;98826.47;5036276;28;20040;-71
2024/01/07 09:06:39;;;;;;;13.52;2.25;;;;;;;12.36;100.00;98866.25;5036636;28;20032;-72
2024/01/07 09:09:06;;;;;;;19.77;2.47;;;;;;;11.85;100.00;98777.19;5032915;28;20482;-76
2024/01/07 09:11:32;;;;;;;14.93;2.55;;;;;;;12.38;100.00;98851.56;5036450;28;20056;-72
2024/01/07 09:13:57;;;;;;;11.80;2.10;;;;;;;12.37;100.00;98825.69;5036038;28;20049;-70
2024/01/07 09:16:23;;;;;;;10.88;2.92;;;;;;;12.55;100.00;98851.63;5036018;28;20030;-73
2024/01/07 09:18:48;;;;;;;19.23;2.58;;;;;;;12.27;100.00;98775.63;5036387;28;20444;-74
2024/01/07 09:21:15;;;;;;;16.85;2.70;;;;;;;12.72;100.00;98856.88;5033520;28;20458;-72
2024/01/07 09:23:43;;;;;;;14.57;3.08;;;;;;;12.79;100.00;98856.00;5032981;28;20088;-71
2024/01/07 09:26:09;;;;;;;12.30;2.40;;;;;;;12.86;100.00;98846.53;5033098;28;20052;-74
2024/01/07 09:28:35;;;;;;;20.05;2.78;;;;;;;12.77;100.00;98818.00;5033005;28;20061;-70
2024/01/07 09:31:01;;;;;;;19.27;3.25;;;;;;;12.99;100.00;98846.53;5032807;28;20037;-73
2024/01/07 09:33:27;;;;;;;14.18;3.88;;;;;;;12.86;100.00;98820.63;5032787;28;20052;-72
2024/01/07 09:35:54;;;;;;;16.52;2.65;;;;;;;13.01;100.00;98847.38;5033137;28;20021;-72
2024/01/07 09:38:19;;;;;;;13.43;2.80;;;;;;;12.79;100.00;98782.63;5032984;28;20060;-71
2024/01/07 09:40:45;;;;;;;18.80;3.05;;;;;;;12.90;100.00;98788.69;5030524;28;20487;-72
2024/01/07 09:43:11;;;;;;;9.18;2.00;;;;;;;13.08;100.00;98800.78;5032793;28;20502;-72
2024/01/07 09:45:39;;;;;;;11.35;2.33;;;;;;;13.15;100.00;98805.97;5032744;28;20028;-72
2024/01/07 09:48:05;;;;;;;18.27;4.03;;;;;;;13.19;100.00;98797.31;5032758;28;20148;-73
2024/01/07 09:50:31;;;;;;;18.58;3.67;;;;;;;13.24;100.00;98790.41;5031367;28;20047;-72
2024/01/07 09:53:21;;;;;;;20.80;3.72;;;;;;;13.15;100.00;98773.13;5030011;28;20041;-72
2024/01/07 09:56:09;;;;;;;17.85;3.17;;;;;;;13.14;100.00;98768.81;5030226;28;20408;-74
2024/01/07 09:58:35;;;;;;;20.48;3.72;;;;;;;13.08;100.00;98763.63;5030071;28;20037;-71
2024/01/07 10:01:01;;;;;;;12.70;2.28;;;;;;;13.04;100.00;98765.34;5030058;28;20033;-72
2024/01/07 10:03:26;;;;;;;17.38;2.88;;;;;;;13.08;100.00;98761.03;5019428;28;20045;-73
2024/01/07 10:05:53;;;;;;;9.77;2.20;;;;;;;13.06;100.00;98763.63;4993996;28;20069;-72
2024/01/07 10:08:20;;;;;;;17.40;3.83;;;;;;;13.06;100.00;98755.88;5009817;28;20121;-71
2024/01/07 10:10:48;;;;;;;11.57;2.33;;;;;;;12.85;100.00;98720.47;5010115;28;20034;-71
2024/01/07 10:13:13;;;;;;;17.63;3.40;;;;;;;12.84;100.00;98723.09;5010178;28;20516;-73
2024/01/07 10:15:39;;;;;;;13.70;2.80;;;;;;;13.15;100.00;98775.72;5009923;28;20534;-73
2024/01/07 10:18:05;;;;;;;15.10;3.50;;;;;;;12.74;100.00;98692.00;5009986;28;20129;-72
2024/01/07 10:20:34;;;;;;;14.30;3.70;;;;;;;13.17;100.00;98767.94;5009787;28;20041;-72
2024/01/07 10:23:02;;;;;;;17.75;3.17;;;;;;;13.14;100.00;98744.63;5022594;28;20070;-73
2024/01/07 10:25:32;;;;;;;22.15;3.45;;;;;;;13.16;100.00;98727.34;5029046;28;20084;-73
2024/01/07 10:28:02;;;;;;;16.42;3.70;;;;;;;13.22;100.00;98730.81;5031202;28;20032;-72
2024/01/07 10:30:28;;;;;;;15.15;3.05;;;;;;;13.13;100.00;98735.13;5031923;28;20080;-72
2024/01/07 10:32:58;;;;;;;17.10;3.15;;;;;;;13.10;100.00;98726.50;5031337;28;20044;-71
2024/01/07 10:35:33;;;;;;;13.43;2.45;;;;;;;13.08;100.00;98730.84;5031974;28;20033;-71
2024/01/07 10:38:00;;;;;;;18.05;3.15;;;;;;;12.95;100.00;98704.06;5031749;28;20497;-72
2024/01/07 10:40:27;;;;;;;15.63;3.85;;;;;;;13.05;100.00;98711.84;5031718;28;20420;-71
2024/01/07 10:42:54;;;;;;;17.95;4.07;;;;;;;12.96;100.00;98704.94;5031530;28;20025;-72
2024/01/07 10:45:20;;;;;;;12.30;2.75;;;;;;;12.97;100.00;98698.03;5031567;28;20026;-71
2024/01/07 10:47:53;;;;;;;16.30;2.53;;;;;;;13.00;100.00;98678.16;5031401;28;20496;-72
2024/01/07 10:50:19;;;;;;;17.05;2.83;;;;;;;13.04;100.00;98698.00;5031388;28;20038;-72
2024/01/07 10:52:50;;;;;;;19.83;3.42;;;;;;;12.75;100.00;98629.00;5031951;28;20036;-71
2024/01/07 10:55:18;;;;;;;19.98;3.60;;;;;;;12.93;100.00;98664.38;5031664;28;20083;-72
2024/01/07 10:57:47;;;;;;;19.17;4.50;;;;;;;13.13;100.00;98683.31;5029914;28;20021;-76
2024/01/07 11:00:18;;;;;;;27.15;4.70;;;;;;;13.11;100.00;98671.22;5031436;28;20033;-72
2024/01/07 11:02:53;;;;;;;25.73;9.00;;;;;;;13.14;100.00;98665.16;5031307;28;20027;-71
2024/01/07 11:05:47;;;;;;;103.35;38.55;;;;;;;13.15;100.00;98650.50;5031266;28;20048;-71
2024/01/07 11:08:34;;;;;;;34.80;11.10;;;;;;;13.29;100.00;98653.06;5030096;28;20026;-70
2024/01/07 11:11:16;;;;;;;29.17;11.38;;;;;;;13.39;100.00;98659.94;5030753;28;20026;-73
2024/01/07 11:13:41;;;;;;;22.80;5.68;;;;;;;13.50;100.00;98670.28;5011659;28;20044;-72
2024/01/07 11:16:11;;;;;;;42.83;17.80;;;;;;;13.59;100.00;98665.03;5011127;28;20030;-75
2024/01/07 11:18:40;;;;;;;59.17;26.25;;;;;;;13.58;100.00;98660.72;5011192;28;20036;-71